createdAt,value
2022-10-14T00:02:00.219Z,10.03
2022-10-14T00:04:26.833Z,9.73
2022-10-14T00:06:53.500Z,8.57
2022-10-14T00:09:20.063Z,9.18
2022-10-14T00:11:46.642Z,10.88
2022-10-14T00:14:16.444Z,8.80
2022-10-14T00:16:44.521Z,8.70
2022-10-14T00:19:12.222Z,8.20
2022-10-14T00:21:40.933Z,9.00
2022-10-14T00:24:07.942Z,8.85
2022-10-14T00:26:37.046Z,8.37
2022-10-14T00:29:07.459Z,9.15
2022-10-14T00:31:34.507Z,8.32
2022-10-14T00:34:01.726Z,9.25
2022-10-14T00:36:28.377Z,8.65
2022-10-14T00:38:55.256Z,8.73
2022-10-14T00:41:40.738Z,8.98
2022-10-14T00:44:11.562Z,9.18
2022-10-14T00:46:40.559Z,11.18
2022-10-14T00:49:27.746Z,9.38
2022-10-14T00:52:08.208Z,8.23
2022-10-14T00:54:41.658Z,7.15
2022-10-14T00:57:09.430Z,7.88
2022-10-14T00:59:36.483Z,8.45
2022-10-14T01:02:03.231Z,7.80
2022-10-14T01:04:29.986Z,7.70
2022-10-14T01:07:15.110Z,8.85
2022-10-14T01:09:48.054Z,8.13
2022-10-14T01:12:30.547Z,9.15
2022-10-14T01:15:27.883Z,10.25
2022-10-14T01:18:01.380Z,7.30
2022-10-14T01:20:51.151Z,9.52
2022-10-14T01:23:32.875Z,8.43
2022-10-14T01:26:18.934Z,7.80
2022-10-14T01:28:55.197Z,7.10
2022-10-14T01:31:28.824Z,8.70
2022-10-14T01:33:58.410Z,7.60
2022-10-14T01:36:32.042Z,8.52
2022-10-14T01:39:29.433Z,7.63
2022-10-14T01:42:04.312Z,7.53
2022-10-14T01:44:32.674Z,7.97
2022-10-14T01:47:00.347Z,7.60
2022-10-14T01:49:37.023Z,12.25
2022-10-14T01:52:10.118Z,8.07
2022-10-14T01:54:41.774Z,7.90
2022-10-14T01:57:11.691Z,8.00
2022-10-14T01:59:39.026Z,6.65
2022-10-14T02:02:05.741Z,6.70
2022-10-14T02:04:32.447Z,6.90
2022-10-14T02:07:04.786Z,7.15
2022-10-14T02:09:57.047Z,6.00
2022-10-14T02:12:34.521Z,6.28
2022-10-14T02:15:15.934Z,6.30
2022-10-14T02:17:42.499Z,6.78
2022-10-14T02:20:20.692Z,8.45
2022-10-14T02:23:15.009Z,7.60
2022-10-14T02:25:43.538Z,6.60
2022-10-14T02:28:12.268Z,7.53
2022-10-14T02:30:42.552Z,7.93
2022-10-14T02:33:09.545Z,6.70
2022-10-14T02:35:37.158Z,7.00
2022-10-14T02:38:05.396Z,6.50
2022-10-14T02:40:47.521Z,7.25
2022-10-14T02:43:14.118Z,8.57
2022-10-14T02:45:42.385Z,7.22
2022-10-14T02:48:09.649Z,8.27
2022-10-14T02:50:36.252Z,9.85
2022-10-14T02:53:02.870Z,8.98
2022-10-14T02:55:29.581Z,8.05
2022-10-14T02:57:56.182Z,8.00
2022-10-14T03:00:22.770Z,8.03
2022-10-14T03:02:49.360Z,7.25
2022-10-14T03:05:16.073Z,7.50
2022-10-14T03:07:42.654Z,8.38
2022-10-14T03:10:09.430Z,7.95
2022-10-14T03:12:36.418Z,7.47
2022-10-14T03:15:03.618Z,7.05
2022-10-14T03:17:30.634Z,7.72
2022-10-14T03:19:58.465Z,8.60
2022-10-14T03:22:25.637Z,10.07
2022-10-14T03:24:52.215Z,8.13
2022-10-14T03:27:18.979Z,8.27
2022-10-14T03:29:45.668Z,8.07
2022-10-14T03:32:12.298Z,8.27
2022-10-14T03:34:38.898Z,7.13
2022-10-14T03:37:05.487Z,9.33
2022-10-14T03:39:32.139Z,8.52
2022-10-14T03:41:58.784Z,7.65
2022-10-14T03:44:25.358Z,7.10
2022-10-14T03:46:52.113Z,7.40
2022-10-14T03:49:18.714Z,10.30
2022-10-14T03:51:45.296Z,8.40
2022-10-14T03:54:11.859Z,7.07
2022-10-14T03:56:38.442Z,7.82
2022-10-14T03:59:05.092Z,7.80
2022-10-14T04:01:31.861Z,7.93
2022-10-14T04:03:58.463Z,7.65
2022-10-14T04:06:25.124Z,7.18
2022-10-14T04:08:51.796Z,8.95
2022-10-14T04:11:18.367Z,8.10
2022-10-14T04:13:45.366Z,7.93
2022-10-14T04:16:12.230Z,9.65
2022-10-14T04:18:38.926Z,8.70
2022-10-14T04:21:08.572Z,7.53
2022-10-14T04:23:35.494Z,8.50
2022-10-14T04:26:06.652Z,9.77
2022-10-14T04:28:34.162Z,9.38
2022-10-14T04:31:00.839Z,9.52
2022-10-14T04:33:27.461Z,7.55
2022-10-14T04:36:01.516Z,7.50
2022-10-14T04:38:28.656Z,8.40
2022-10-14T04:40:55.838Z,10.55
2022-10-14T04:43:22.402Z,8.05
2022-10-14T04:45:49.106Z,9.02
2022-10-14T04:48:16.238Z,8.15
2022-10-14T04:50:42.920Z,7.83
2022-10-14T04:53:13.443Z,8.73
2022-10-14T04:55:40.710Z,8.48
2022-10-14T04:58:07.391Z,8.73
2022-10-14T05:00:33.992Z,9.30
2022-10-14T05:03:00.580Z,9.57
2022-10-14T05:05:27.239Z,9.45
2022-10-14T05:07:53.829Z,8.73
2022-10-14T05:10:20.402Z,11.18
2022-10-14T05:12:46.985Z,8.95
2022-10-14T05:15:13.587Z,8.53
2022-10-14T05:17:40.269Z,8.80
2022-10-14T05:20:07.422Z,8.98
2022-10-14T05:22:34.131Z,10.38
2022-10-14T05:25:00.729Z,8.77
2022-10-14T05:27:27.310Z,9.60
2022-10-14T05:29:53.909Z,8.35
2022-10-14T05:32:20.827Z,9.77
2022-10-14T05:34:47.657Z,9.07
2022-10-14T05:37:14.274Z,9.85
2022-10-14T05:39:40.964Z,11.23
2022-10-14T05:42:07.523Z,9.55
2022-10-14T05:44:34.137Z,10.05
2022-10-14T05:47:01.887Z,8.85
2022-10-14T05:49:28.478Z,10.20
2022-10-14T05:51:55.047Z,9.43
2022-10-14T05:54:21.650Z,9.73
2022-10-14T05:56:48.227Z,9.25
2022-10-14T05:59:14.845Z,9.18
2022-10-14T06:01:41.597Z,10.20
2022-10-14T06:04:08.254Z,9.43
2022-10-14T06:06:34.903Z,9.20
2022-10-14T06:09:01.505Z,10.60
2022-10-14T06:11:28.085Z,8.65
2022-10-14T06:13:54.677Z,10.60
2022-10-14T06:16:21.278Z,11.30
2022-10-14T06:18:51.044Z,8.57
2022-10-14T06:21:20.757Z,9.07
2022-10-14T06:23:47.408Z,10.52
2022-10-14T06:26:14.018Z,10.13
2022-10-14T06:28:40.903Z,10.63
2022-10-14T06:31:07.652Z,9.13
2022-10-14T06:33:34.423Z,8.18
2022-10-14T06:36:06.057Z,10.07
2022-10-14T06:38:32.860Z,10.57
2022-10-14T06:40:59.739Z,10.57
2022-10-14T06:43:26.330Z,10.55
2022-10-14T06:45:52.915Z,8.73
2022-10-14T06:48:19.520Z,10.75
2022-10-14T06:50:46.114Z,11.07
2022-10-14T06:53:12.693Z,9.27
2022-10-14T06:55:39.315Z,10.93
2022-10-14T06:58:05.874Z,9.63
2022-10-14T07:00:32.464Z,8.80
2022-10-14T07:02:59.542Z,11.35
2022-10-14T07:05:26.766Z,10.87
2022-10-14T07:07:53.444Z,10.43
2022-10-14T07:10:20.045Z,12.32
2022-10-14T07:12:46.643Z,10.15
2022-10-14T07:15:13.301Z,10.07
2022-10-14T07:17:39.972Z,10.57
2022-10-14T07:20:07.213Z,10.23
2022-10-14T07:22:38.616Z,9.85
2022-10-14T07:25:06.598Z,10.80
2022-10-14T07:27:33.459Z,12.98
2022-10-14T07:30:01.622Z,10.43
2022-10-14T07:32:28.399Z,11.57
2022-10-14T07:34:54.971Z,11.13
2022-10-14T07:37:22.093Z,10.93
2022-10-14T07:39:49.459Z,9.85
2022-10-14T07:42:16.092Z,10.37
2022-10-14T07:44:42.754Z,11.98
2022-10-14T07:47:09.345Z,11.68
2022-10-14T07:49:35.931Z,12.38
2022-10-14T07:52:02.515Z,11.20
2022-10-14T07:54:31.111Z,10.27
2022-10-14T07:56:58.049Z,12.10
2022-10-14T07:59:25.005Z,10.85
2022-10-14T08:01:52.720Z,11.65
2022-10-14T08:04:19.619Z,10.80
2022-10-14T08:06:49.966Z,11.77
2022-10-14T08:09:17.102Z,10.18
2022-10-14T08:11:44.240Z,11.00
2022-10-14T08:14:10.943Z,10.98
2022-10-14T08:16:37.975Z,10.50
2022-10-14T08:19:13.741Z,10.27
2022-10-14T08:21:42.137Z,10.07
2022-10-14T08:24:08.890Z,15.07
2022-10-14T08:26:45.850Z,10.73
2022-10-14T08:29:12.440Z,9.85
2022-10-14T08:31:39.132Z,10.53
2022-10-14T08:34:05.700Z,9.73
2022-10-14T08:36:32.466Z,9.57
2022-10-14T08:38:59.283Z,11.88
2022-10-14T08:42:03.482Z,13.02
2022-10-14T08:44:53.540Z,11.73
2022-10-14T08:47:24.192Z,10.75
2022-10-14T08:49:53.876Z,10.73
2022-10-14T08:52:28.014Z,10.75
2022-10-14T08:55:23.773Z,9.70
2022-10-14T08:58:22.428Z,11.73
2022-10-14T09:00:52.035Z,9.32
2022-10-14T09:03:22.715Z,11.02
2022-10-14T09:05:56.607Z,11.75
2022-10-14T09:08:30.759Z,13.90
2022-10-14T09:10:58.114Z,11.37
2022-10-14T09:13:49.505Z,9.90
2022-10-14T09:16:21.063Z,12.07
2022-10-14T09:18:56.294Z,10.50
2022-10-14T09:21:34.242Z,9.85
2022-10-14T09:24:19.509Z,12.67
2022-10-14T09:26:49.659Z,11.98
2022-10-14T09:29:28.650Z,12.10
2022-10-14T09:32:07.341Z,11.10
2022-10-14T09:34:39.565Z,11.18
2022-10-14T09:37:30.243Z,13.00
2022-10-14T09:40:23.047Z,9.88
2022-10-14T09:43:01.712Z,11.00
2022-10-14T09:45:29.905Z,13.02
2022-10-14T09:48:07.482Z,12.05
2022-10-14T09:50:42.755Z,14.10
2022-10-14T09:53:19.164Z,11.25
2022-10-14T09:55:48.610Z,10.98
2022-10-14T09:58:26.140Z,9.13
2022-10-14T10:00:57.046Z,10.27
2022-10-14T10:03:29.564Z,12.30
2022-10-14T10:06:01.040Z,14.38
2022-10-14T10:08:27.691Z,13.00
2022-10-14T10:11:06.700Z,11.57
2022-10-14T10:13:40.229Z,11.88
2022-10-14T10:16:10.415Z,10.23
2022-10-14T10:18:37.066Z,12.80
2022-10-14T10:21:27.762Z,11.35
2022-10-14T10:24:03.061Z,11.68
2022-10-14T10:26:35.578Z,11.93
2022-10-14T10:29:04.981Z,10.40
2022-10-14T10:31:50.595Z,11.02
2022-10-14T10:34:29.238Z,10.95
2022-10-14T10:37:05.131Z,10.90
2022-10-14T10:40:21.375Z,10.67
2022-10-14T10:43:06.821Z,9.43
2022-10-14T10:46:07.750Z,10.60
2022-10-14T10:48:44.340Z,8.77
2022-10-14T10:51:23.472Z,9.13
2022-10-14T10:54:08.409Z,10.30
2022-10-14T10:56:57.650Z,10.00
2022-10-14T10:59:38.722Z,9.77
2022-10-14T11:02:33.309Z,10.35
2022-10-14T11:05:26.164Z,8.57
2022-10-14T11:08:42.871Z,9.33
2022-10-14T11:11:51.112Z,8.10
2022-10-14T11:14:39.882Z,8.25
2022-10-14T11:17:28.839Z,9.10
2022-10-14T11:20:22.400Z,9.48
2022-10-14T11:22:58.178Z,9.53
2022-10-14T11:25:24.782Z,8.82
2022-10-14T11:28:23.648Z,9.55
2022-10-14T11:31:01.557Z,7.38
2022-10-14T11:33:40.143Z,8.02
2022-10-14T11:36:21.477Z,9.37
2022-10-14T11:38:57.297Z,7.60
2022-10-14T11:41:36.156Z,10.13
2022-10-14T11:44:19.176Z,7.22
2022-10-14T11:46:49.477Z,9.93
2022-10-14T11:49:22.925Z,8.23
2022-10-14T11:51:53.045Z,7.63
2022-10-14T11:54:31.979Z,8.30
2022-10-14T11:57:02.958Z,8.68
2022-10-14T11:59:49.498Z,7.68
2022-10-14T12:02:39.436Z,9.10
2022-10-14T12:05:47.423Z,9.70
2022-10-14T12:08:23.006Z,7.30
2022-10-14T12:11:12.379Z,8.48
2022-10-14T12:13:42.395Z,6.75
2022-10-14T12:16:13.344Z,7.47
2022-10-14T12:18:39.985Z,7.78
2022-10-14T12:21:17.671Z,7.28
2022-10-14T12:23:48.526Z,6.65
2022-10-14T12:26:38.126Z,7.40
2022-10-14T12:29:04.816Z,6.83
2022-10-14T12:31:31.364Z,8.77
2022-10-14T12:34:16.848Z,9.07
2022-10-14T12:36:47.792Z,7.78
2022-10-14T12:39:17.498Z,6.57
2022-10-14T12:41:53.543Z,7.07
2022-10-14T12:44:21.638Z,7.68
2022-10-14T12:46:49.933Z,7.60
2022-10-14T12:49:22.573Z,6.20
2022-10-14T12:51:53.561Z,7.18
2022-10-14T12:54:20.146Z,6.23
2022-10-14T12:57:18.026Z,6.00
2022-10-14T12:59:49.225Z,7.10
2022-10-14T13:02:26.753Z,8.43
2022-10-14T13:04:54.787Z,7.53
2022-10-14T13:07:42.900Z,6.70
2022-10-14T13:10:28.294Z,6.22
2022-10-14T13:12:54.925Z,8.00
2022-10-14T13:15:36.577Z,6.22
2022-10-14T13:18:31.191Z,6.80
2022-10-14T13:20:57.940Z,6.73
2022-10-14T13:23:30.675Z,6.53
2022-10-14T13:26:24.438Z,5.70
2022-10-14T13:28:57.218Z,6.18
2022-10-14T13:31:58.972Z,5.63
2022-10-14T13:34:41.522Z,5.37
2022-10-14T13:37:30.494Z,5.22
2022-10-14T13:39:57.524Z,5.85
2022-10-14T13:42:33.855Z,5.00
2022-10-14T13:45:14.307Z,5.97
2022-10-14T13:47:42.589Z,5.17
2022-10-14T13:50:11.913Z,5.65
2022-10-14T13:52:39.490Z,6.00
2022-10-14T13:55:20.355Z,5.40
2022-10-14T13:58:13.896Z,5.82
2022-10-14T14:00:57.961Z,5.73
2022-10-14T14:03:38.365Z,4.90
2022-10-14T14:06:17.091Z,6.40
2022-10-14T14:09:01.161Z,5.60
2022-10-14T14:11:30.496Z,6.03
2022-10-14T14:14:18.956Z,5.17
2022-10-14T14:16:50.000Z,5.30
2022-10-14T14:19:21.621Z,5.10
2022-10-14T14:21:48.249Z,4.97
2022-10-14T14:24:18.840Z,5.07
2022-10-14T14:26:45.732Z,6.40
2022-10-14T14:29:19.041Z,5.38
2022-10-14T14:34:34.835Z,4.78
2022-10-14T14:37:16.594Z,5.10
2022-10-14T14:40:02.363Z,5.20
2022-10-14T14:42:37.769Z,4.22
2022-10-14T14:45:07.997Z,5.93
2022-10-14T14:47:34.728Z,6.38
2022-10-14T14:50:25.567Z,4.88
2022-10-14T14:52:49.370Z,5.80
2022-10-14T14:55:35.479Z,4.93
2022-10-14T14:58:03.206Z,4.75
2022-10-14T15:00:30.762Z,6.07
2022-10-14T15:03:02.218Z,5.97
2022-10-14T15:05:29.855Z,4.80
2022-10-14T15:07:56.876Z,4.97
2022-10-14T15:10:26.174Z,5.13
2022-10-14T15:12:57.285Z,5.32
2022-10-14T15:15:32.469Z,6.07
2022-10-14T15:18:24.654Z,4.50
2022-10-14T15:20:51.671Z,5.50
2022-10-14T15:23:46.007Z,5.05
2022-10-14T15:26:38.877Z,4.65
2022-10-14T15:29:08.460Z,4.95
2022-10-14T15:31:35.902Z,4.70
2022-10-14T15:34:02.931Z,5.13
2022-10-14T15:36:31.961Z,4.97
2022-10-14T15:39:00.681Z,4.70
2022-10-14T15:41:30.113Z,4.60
2022-10-14T15:43:56.666Z,5.27
2022-10-14T15:46:41.731Z,4.93
2022-10-14T15:49:16.135Z,5.00
2022-10-14T15:51:42.733Z,4.30
2022-10-14T15:54:12.652Z,4.97
2022-10-14T15:56:39.471Z,4.23
2022-10-14T15:59:06.106Z,6.00
2022-10-14T16:01:35.378Z,4.80
2022-10-14T16:04:03.796Z,5.43
2022-10-14T16:06:32.601Z,4.45
2022-10-14T16:08:59.242Z,4.63
2022-10-14T16:11:28.001Z,4.47
2022-10-14T16:13:54.901Z,4.38
2022-10-14T16:16:25.656Z,5.10
2022-10-14T16:18:52.559Z,5.40
2022-10-14T16:21:19.100Z,4.93
2022-10-14T16:23:45.696Z,5.05
2022-10-14T16:26:13.832Z,4.90
2022-10-14T16:28:40.544Z,5.32
2022-10-14T16:31:09.345Z,5.18
2022-10-14T16:33:36.874Z,5.70
2022-10-14T16:36:06.946Z,6.25
2022-10-14T16:38:33.873Z,4.85
2022-10-14T16:41:02.353Z,5.07
2022-10-14T16:43:29.378Z,7.72
2022-10-14T16:46:00.356Z,4.93
2022-10-14T16:48:28.030Z,5.35
2022-10-14T16:50:55.314Z,4.72
2022-10-14T16:53:40.512Z,4.97
2022-10-14T16:56:30.515Z,6.50
2022-10-14T16:58:58.062Z,4.10
2022-10-14T17:01:24.716Z,5.18
2022-10-14T17:03:51.336Z,4.70
2022-10-14T17:06:23.120Z,5.03
2022-10-14T17:08:50.906Z,5.82
2022-10-14T17:11:17.604Z,5.80
2022-10-14T17:13:44.470Z,5.18
2022-10-14T17:16:11.260Z,6.45
2022-10-14T17:18:38.072Z,5.53
2022-10-14T17:21:09.072Z,4.82
2022-10-14T17:23:36.373Z,5.00
2022-10-14T17:26:04.282Z,6.25
2022-10-14T17:28:31.899Z,4.47
2022-10-14T17:30:59.273Z,4.97
2022-10-14T17:33:26.147Z,4.93
2022-10-14T17:35:59.810Z,5.57
2022-10-14T17:38:27.866Z,5.43
2022-10-14T17:41:10.485Z,5.35
2022-10-14T17:43:37.333Z,5.47
2022-10-14T17:46:11.335Z,5.43
2022-10-14T17:48:43.312Z,5.90
2022-10-14T17:51:11.251Z,5.65
2022-10-14T17:53:38.097Z,5.18
2022-10-14T17:56:06.018Z,5.25
2022-10-14T17:58:32.718Z,5.05
2022-10-14T18:01:11.093Z,5.03
2022-10-14T18:03:42.121Z,5.88
2022-10-14T18:06:32.928Z,6.38
2022-10-14T18:09:02.574Z,6.03
2022-10-14T18:11:49.741Z,5.63
2022-10-14T18:14:17.437Z,6.13
2022-10-14T18:16:44.054Z,6.80
2022-10-14T18:19:15.757Z,5.65
2022-10-14T18:21:43.473Z,4.82
2022-10-14T18:24:11.584Z,5.72
2022-10-14T18:26:40.583Z,5.77
2022-10-14T18:29:07.837Z,6.70
2022-10-14T18:31:34.428Z,6.13
2022-10-14T18:34:01.609Z,5.07
2022-10-14T18:36:30.504Z,5.72
2022-10-14T18:38:59.723Z,4.90
2022-10-14T18:41:26.652Z,6.38
2022-10-14T18:43:54.703Z,5.93
2022-10-14T18:46:22.879Z,5.68
2022-10-14T18:48:52.206Z,5.10
2022-10-14T18:51:21.140Z,6.20
2022-10-14T18:53:48.808Z,5.90
2022-10-14T18:56:18.331Z,6.15
2022-10-14T18:58:46.278Z,6.55
2022-10-14T19:01:15.207Z,5.55
2022-10-14T19:03:42.264Z,5.93
2022-10-14T19:06:10.506Z,7.32
2022-10-14T19:08:39.094Z,6.22
2022-10-14T19:11:08.522Z,7.05
2022-10-14T19:13:35.137Z,7.30
2022-10-14T19:16:13.494Z,6.13
2022-10-14T19:18:40.180Z,6.57
2022-10-14T19:21:16.302Z,7.55
2022-10-14T19:23:43.728Z,7.38
2022-10-14T19:26:13.483Z,7.75
2022-10-14T19:28:40.697Z,6.67
2022-10-14T19:31:12.213Z,8.68
2022-10-14T19:33:40.287Z,7.47
2022-10-14T19:36:07.409Z,7.60
2022-10-14T19:38:35.157Z,7.35
2022-10-14T19:41:03.037Z,8.27
2022-10-14T19:43:30.278Z,7.13
2022-10-14T19:45:58.736Z,8.05
2022-10-14T19:48:26.129Z,7.88
2022-10-14T19:50:52.714Z,9.90
2022-10-14T19:53:19.356Z,8.33
2022-10-14T19:55:45.966Z,7.55
2022-10-14T19:58:12.569Z,8.45
2022-10-14T20:00:39.202Z,7.55
2022-10-14T20:03:05.794Z,8.38
2022-10-14T20:05:32.377Z,7.90
2022-10-14T20:07:59.002Z,9.48
2022-10-14T20:10:25.605Z,9.13
2022-10-14T20:12:52.223Z,8.15
2022-10-14T20:15:18.850Z,9.07
2022-10-14T20:17:45.685Z,9.77
2022-10-14T20:20:12.799Z,9.02
2022-10-14T20:22:39.409Z,10.80
2022-10-14T20:25:06.259Z,8.98
2022-10-14T20:27:32.852Z,9.77
2022-10-14T20:29:59.431Z,9.63
2022-10-14T20:32:25.984Z,9.90
2022-10-14T20:34:52.586Z,10.20
2022-10-14T20:37:21.902Z,9.52
2022-10-14T20:39:50.928Z,10.63
2022-10-14T20:42:17.508Z,12.43
2022-10-14T20:44:44.106Z,10.18
2022-10-14T20:47:10.793Z,10.88
2022-10-14T20:49:37.385Z,9.75
2022-10-14T20:52:04.050Z,11.85
2022-10-14T20:54:30.660Z,10.13
2022-10-14T20:56:57.327Z,13.20
2022-10-14T20:59:24.065Z,11.10
2022-10-14T21:01:50.715Z,10.38
2022-10-14T21:04:17.303Z,11.05
2022-10-14T21:06:43.886Z,11.20
2022-10-14T21:09:10.901Z,10.73
2022-10-14T21:11:37.498Z,11.23
2022-10-14T21:14:04.159Z,11.70
2022-10-14T21:16:32.972Z,11.85
2022-10-14T21:19:07.483Z,10.53
2022-10-14T21:21:39.613Z,9.88
2022-10-14T21:24:07.114Z,11.45
2022-10-14T21:26:33.809Z,9.98
2022-10-14T21:29:02.515Z,12.10
2022-10-14T21:31:29.350Z,11.27
2022-10-14T21:34:05.335Z,14.63
2022-10-14T21:36:36.454Z,13.15
2022-10-14T21:39:10.192Z,11.80
2022-10-14T21:41:37.219Z,11.98
2022-10-14T21:44:04.903Z,11.67
2022-10-14T21:46:31.737Z,12.98
2022-10-14T21:48:58.870Z,13.68
2022-10-14T21:51:27.305Z,12.30
2022-10-14T21:53:54.153Z,11.18
2022-10-14T21:56:20.979Z,11.60
2022-10-14T21:58:47.548Z,12.43
2022-10-14T22:01:16.941Z,12.57
2022-10-14T22:03:44.026Z,13.00
2022-10-14T22:06:15.882Z,12.15
2022-10-14T22:08:44.449Z,11.73
2022-10-14T22:11:31.697Z,12.70
2022-10-14T22:14:00.418Z,11.48
2022-10-14T22:16:29.158Z,11.60
2022-10-14T22:18:58.997Z,14.50
2022-10-14T22:21:27.406Z,12.07
2022-10-14T22:23:54.176Z,11.93
2022-10-14T22:26:22.990Z,11.20
2022-10-14T22:28:50.399Z,13.00
2022-10-14T22:31:19.961Z,12.75
2022-10-14T22:33:47.023Z,12.53
2022-10-14T22:36:19.319Z,12.15
2022-10-14T22:38:49.888Z,12.57
2022-10-14T22:41:17.379Z,11.60
2022-10-14T22:43:54.899Z,11.77
2022-10-14T22:46:24.364Z,11.50
2022-10-14T22:48:56.167Z,11.40
2022-10-14T22:51:33.543Z,12.40
2022-10-14T22:54:00.286Z,13.02
2022-10-14T22:56:28.598Z,12.85
2022-10-14T22:58:56.298Z,12.60
2022-10-14T23:01:23.651Z,13.23
2022-10-14T23:03:50.309Z,10.98
2022-10-14T23:06:17.216Z,12.65
2022-10-14T23:08:44.087Z,10.82
2022-10-14T23:11:16.443Z,13.50
2022-10-14T23:13:43.363Z,11.20
2022-10-14T23:16:18.234Z,12.02
2022-10-14T23:18:45.677Z,11.98
2022-10-14T23:21:14.999Z,13.77
2022-10-14T23:23:42.543Z,10.93
2022-10-14T23:26:10.752Z,11.73
2022-10-14T23:28:38.202Z,12.82
2022-10-14T23:31:12.218Z,13.50
2022-10-14T23:33:39.230Z,13.70
2022-10-14T23:36:07.173Z,12.60
2022-10-14T23:38:34.256Z,11.07
2022-10-14T23:41:02.801Z,12.73
2022-10-14T23:43:30.106Z,13.43
2022-10-14T23:45:56.685Z,11.75
2022-10-14T23:48:23.342Z,11.60
2022-10-14T23:50:50.156Z,11.20
2022-10-14T23:53:16.993Z,13.40
2022-10-14T23:55:43.715Z,11.77
2022-10-14T23:58:10.525Z,11.30
